Thompson, Utah
Current Conditions -  °F | °C
As of 11:53 PM on Saturday 25 Oct 2014 (Local Time) from KCNY Reporting Station
Clear Clear  
Wind Chill: 62°   Ceiling: Unl
Heat Index: 62°   Visibility: 10mi
Dew Point: 33°   Wind: 0mph
Humidity: 34%   Direction: NA
Pressure: 30"   Gusts: NA
Location:  38.97°N, 109.71°W
Report Text: KCNY 260553Z AUTO 00000KT 10SM CLR 17/01 A3000 RMK AO2 SLP113 T01670006 10244 20144 56008
Loading
Personal Weather Stations






























Interactive Weather Map
Tropical Storm Tracking
New forecast layout! Learn more

10-Day Weather Forecast

Advertisements
Track Severe Weather on mobile